Capitol Logistics 2181

Operating for AJT



KEWR
Newark Liberty International Airport
Newark, New Jersey
KMCO
Orlando International Airport
Orlando, Florida

Activity Log

Date Flight Route Aircraft Duration
04/14/2021 CPX2181 ELVAE COL WHITE J209 SBY J79 KATZN J193 WEAVR J121 CHS IGARY Q85 LPERD OMN CWRLD4 B763 2h 20m

Route Details

Aircraft Information
Primary: Boeing 767-300BDSF
Backup: Boeing 757-200SF
Route Data
Distance: 817nm
Duration: 2h 14m
Recm'd Route: ELVAE COL WHITE J209 SBY J79 KATZN J193 WEAVR J121 CHS IGARY Q85 LPERD OMN CWRLD4
Origin Wx: KEWR 180151Z 34008KT 10SM OVC060 11/00 A2983 RMK AO2 SLP099 T01110000 $
Dest. Wx: KMCO 180153Z 26006KT 10SM FEW025 SCT250 26/20 A2988 RMK AO2 SLP115 T02560200
Notes: